Latest Coastal Weather Observations for King Island Airport

IDV60701

Issued at 4:12 pm EST Monday 20 May 2024 (issued every 10 minutes, with the page automatically refreshed every 10 minutes)

About coastal observations | Map of coastal stations | Coastal observations for VIC | Marine services | Other Formats
Station Details ID: 098017 Name: KING ISLAND AIRPORT Lat: -39.88 Lon: 143.89 Height: 35.42 m
Data from the previous 72 hours. | See also: Recent months at King Island Airport
Date/Time
EST
Wind Sea
Height
m
Swell Vis
km
Cloud Weather Temp
°C
Press
MSL
hPa
Rain since
9am
mm
Dir  Spd
kts
Gust
kts
Height
m
Period
s
Dir
20/04:00pm SSE 9 14 - - - - 10 Partly cloudy - 12.1 1028.8 0.0
20/03:30pm SSE 10 16 - - - - 10 Partly cloudy - 12.8 1028.8 0.0
20/03:00pm SSW 10 14 - - - - 10 Partly cloudy Recent precip. 13.2 1028.5 0.0
20/02:30pm S 10 13 - - - - 9 Partly cloudy - 11.9 1028.5 0.0
20/02:00pm SSW 11 15 - - - - 10 Partly cloudy - 13.1 1028.4 0.0
20/01:30pm S 9 13 - - - - 10 Partly cloudy - 13.9 1028.5 0.0
20/01:00pm SSW 10 14 - - - - 10 Partly cloudy - 13.3 1028.6 0.0
20/12:30pm SSW 11 14 - - - - 10 Partly cloudy - 12.9 1028.6 0.0
20/12:00pm S 10 13 - - - - 10 Mostly cloudy - 12.8 1028.9 0.0
20/11:30am S 9 12 - - - - 10 Cloudy - 13.0 1029.1 0.0
20/11:00am S 9 14 - - - - 10 Partly cloudy - 12.4 1029.2 0.0
20/10:30am S 9 15 - - - - 10 Partly cloudy - 12.8 1028.9 0.0
20/10:00am S 8 11 - - - - 10 - - 13.1 1028.6 0.0
20/09:30am S 8 12 - - - - 10 Partly cloudy - 12.3 1028.5 0.0
20/09:00am S 6 9 - - - - 10 Mostly clear - 11.7 1028.4 1.6
20/08:30am S 7 10 - - - - 10 Partly cloudy - 11.2 1028.0 1.6
20/08:00am S 7 9 - - - - 10 Partly cloudy - 10.2 1027.8 1.6
20/07:30am SSE 6 8 - - - - 10 Partly cloudy - 10.0 1027.4 1.6
20/07:00am SSE 6 9 - - - - 10 Partly cloudy - 9.8 1027.1 1.6
20/06:30am S 6 7 - - - - 10 Partly cloudy - 9.3 1026.8 1.6
20/06:00am SSW 5 6 - - - - 10 Mostly clear Recent precip. 8.6 1026.5 1.6
20/05:30am S 6 9 - - - - 10 Partly cloudy - 9.9 1026.0 1.4
20/05:00am S 5 7 - - - - 10 Partly cloudy - 9.5 1025.9 1.4
20/04:30am SSE 7 11 - - - - 10 Partly cloudy - 9.7 1025.5 1.4
20/04:00am S 6 11 - - - - 10 Partly cloudy - 10.3 1025.4 1.4
20/03:30am S 6 8 - - - - 10 Partly cloudy - 9.0 1025.3 1.4
20/03:00am S 6 8 - - - - 10 - - 9.2 1025.1 1.4
20/02:30am S 6 8 - - - - 10 - - 9.4 1025.0 1.4
20/02:00am S 8 11 - - - - 10 Partly cloudy - 9.9 1024.7 1.4
20/01:30am S 6 8 - - - - 10 - - 9.4 1024.6 1.4
20/01:00am SSE 5 7 - - - - 10 Partly cloudy - 9.7 1024.7 1.4
20/12:30am S 8 11 - - - - 10 Partly cloudy - 10.4 1024.7 1.4
20/12:00am S 9 13 - - - - 10 Partly cloudy - 10.5 1024.6 1.4
 
Date/Time
EST
Wind Sea
Height
m
Swell Vis
km
Cloud Weather Temp
°C
Press
MSL
hPa
Rain since
9am
mm
Dir  Spd
kts
Gust
kts
Height
m
Period
s
Dir
19/11:30pm SSE 6 12 - - - - 10 Partly cloudy - 10.7 1024.6 1.4
19/11:00pm S 5 8 - - - - 10 Partly cloudy - 10.5 1024.3 1.4
19/10:30pm SSW 11 15 - - - - 10 Partly cloudy - 11.0 1024.3 1.2
19/10:00pm SSW 11 16 - - - - 10 Partly cloudy - 10.9 1024.3 1.2
19/09:30pm SSW 9 12 - - - - 10 Partly cloudy - 11.1 1024.3 1.2
19/09:00pm SSW 10 14 - - - - 10 Cloudy Rain 11.0 1024.0 1.2
19/08:54pm SSW 11 16 - - - - 10 Partly cloudy - 10.9 1024.0 1.2
19/08:41pm SSW 13 20 - - - - 10 Partly cloudy - 11.0 1023.9 1.2
19/08:37pm SSW 12 20 - - - - 10 Partly cloudy - 11.1 1024.0 1.2
19/08:33pm SSW 11 20 - - - - 10 Partly cloudy - 11.2 1023.9 1.2
19/08:30pm SSW 9 11 - - - - 10 Partly cloudy - 10.9 1023.8 1.2
19/08:18pm SSW 9 13 - - - - 5 Partly cloudy - 11.1 1023.8 1.2
19/08:09pm SSW 10 13 - - - - 10 Partly cloudy - 11.0 1023.7 0.8
19/08:00pm SW 12 17 - - - - 7 Partly cloudy - 10.9 1023.6 0.8
19/07:55pm SW 11 17 - - - - 7 Partly cloudy - 11.1 1023.6 0.8
19/07:48pm SW 11 15 - - - - 10 Partly cloudy - 10.8 1023.5 0.8
19/07:45pm SW 11 16 - - - - 10 Partly cloudy - 10.8 1023.4 0.8
19/07:43pm SW 11 16 - - - - 10 Partly cloudy - 10.8 1023.5 0.8
19/07:30pm SW 14 21 - - - - 3 Partly cloudy - 11.1 1023.5 0.8
19/07:27pm SW 13 17 - - - - 5 Partly cloudy - 11.3 1023.5 0.6
19/07:04pm SW 13 20 - - - - 10 Partly cloudy - 11.5 1023.1 0.4
19/07:00pm SW 13 16 - - - - 10 Partly cloudy - 11.6 1023.1 0.4
19/06:30pm SW 13 18 - - - - 10 Partly cloudy - 11.1 1022.8 0.4
19/06:00pm SW 12 16 - - - - 10 Cloudy - 11.6 1022.5 0.4
19/05:30pm SW 13 17 - - - - 10 Partly cloudy - 11.7 1022.2 0.4
19/05:00pm SW 14 20 - - - - 10 Partly cloudy - 11.9 1022.1 0.4
19/04:51pm SW 14 20 - - - - 10 Partly cloudy - 12.1 1022.0 0.4
19/04:36pm SW 16 21 - - - - 10 Partly cloudy - 11.7 1021.9 0.4
19/04:30pm SW 16 21 - - - - 9 Partly cloudy - 12.0 1021.8 0.4
19/04:00pm SW 17 23 - - - - 10 Partly cloudy - 12.6 1021.7 0.4
19/03:30pm SW 18 23 - - - - 10 Partly cloudy - 12.4 1021.6 0.4
19/03:00pm SW 19 25 - - - - 10 Cloudy - 13.7 1021.4 0.4
19/02:52pm SW 15 25 - - - - 10 Partly cloudy - 14.1 1021.3 0.4
19/02:30pm SW 17 24 - - - - 10 Partly cloudy - 12.9 1021.5 0.4
19/02:00pm SW 17 23 - - - - 10 - - 14.2 1021.4 0.4
19/01:30pm SW 17 23 - - - - 10 Cloudy - 14.0 1021.5 0.4
19/01:00pm SW 17 25 - - - - 10 Cloudy - 13.9 1021.6 0.4
19/12:30pm SW 17 27 - - - - 10 Partly cloudy - 13.1 1022.0 0.4
19/12:24pm SW 17 27 - - - - 10 Partly cloudy - 13.5 1021.9 0.4
19/12:00pm SW 17 22 - - - - 10 Cloudy - 13.7 1022.1 0.4
19/11:30am SSW 17 21 - - - - 10 Cloudy - 13.9 1022.2 0.4
19/11:00am SSW 17 23 - - - - 10 Partly cloudy - 13.5 1022.2 0.4
19/10:30am SW 17 23 - - - - 10 Partly cloudy - 13.4 1022.2 0.4
19/10:03am SW 17 27 - - - - 10 Partly cloudy - 12.9 1022.0 0.4
19/10:00am SW 19 27 - - - - 10 Partly cloudy - 12.8 1022.0 0.4
19/09:31am WSW 16 26 - - - - 4 Partly cloudy - 12.9 1021.9 0.2
19/09:30am WSW 17 26 - - - - 4 Partly cloudy - 12.8 1021.9 0.0
19/09:27am WSW 19 26 - - - - 5 Partly cloudy - 12.9 1021.8 0.0
19/09:00am SW 16 22 - - - - 10 Cloudy Showers 13.1 1021.7 1.2
19/08:49am SW 17 27 - - - - 10 Partly cloudy - 13.8 1021.7 1.2
19/08:30am SW 16 24 - - - - 10 Partly cloudy - 13.2 1021.6 1.2
19/08:00am SW 19 28 - - - - 10 Partly cloudy - 13.0 1021.4 1.2
19/07:30am SW 15 19 - - - - 10 Partly cloudy - 12.8 1021.5 1.2
19/07:20am SW 16 23 - - - - 10 Partly cloudy - 12.6 1021.4 1.2
19/07:19am SW 16 23 - - - - 10 Partly cloudy - 12.6 1021.4 1.2
19/07:00am WSW 21 31 - - - - 3 Partly cloudy - 12.1 1021.4 1.0
19/06:52am WSW 17 29 - - - - 4 Partly cloudy - 13.3 1021.1 0.6
19/06:45am WSW 19 27 - - - - 5 Partly cloudy - 13.3 1021.1 0.6
19/06:30am WSW 19 27 - - - - 10 Partly cloudy - 13.3 1021.1 0.6
19/06:00am W 17 24 - - - - 10 Cloudy Recent precip. 13.2 1021.4 0.4
19/05:30am W 19 30 - - - - 9 Partly cloudy - 12.8 1021.5 0.4
19/05:04am W 17 29 - - - - 10 Partly cloudy - 12.8 1021.6 0.2
19/05:00am WSW 17 26 - - - - 10 Partly cloudy - 12.6 1021.5 0.2
19/04:38am W 17 24 - - - - 10 Partly cloudy - 12.6 1021.7 0.2
19/04:35am W 18 28 - - - - 10 Partly cloudy - 12.5 1021.7 0.2
19/04:30am W 20 28 - - - - 10 Partly cloudy - 12.3 1021.8 0.2
19/04:20am W 19 27 - - - - 5 Partly cloudy - 12.5 1021.9 0.2
19/04:00am W 18 27 - - - - 10 Cloudy - 12.6 1022.1 0.0
19/03:48am W 16 28 - - - - 10 Partly cloudy - 12.3 1022.2 0.0
19/03:36am W 18 25 - - - - 10 Partly cloudy - 12.3 1022.4 0.0
19/03:30am W 19 29 - - - - 10 Partly cloudy - 12.2 1022.6 0.0
19/03:23am W 18 29 - - - - 10 Partly cloudy - 12.4 1022.6 0.0
19/03:00am W 18 26 - - - - 10 Cloudy Showers 12.9 1022.8 0.0
19/02:30am W 17 25 - - - - 10 Partly cloudy - 12.6 1023.1 0.0
19/02:01am W 18 30 - - - - 10 Partly cloudy - 12.4 1023.4 0.0
19/02:00am W 18 25 - - - - 10 Partly cloudy - 12.5 1023.4 0.0
19/01:50am W 18 28 - - - - 10 Partly cloudy - 12.3 1023.5 0.0
19/01:30am W 17 23 - - - - 10 Partly cloudy - 11.8 1023.9 0.0
19/01:00am W 17 25 - - - - 10 Partly cloudy - 12.4 1024.3 0.0
19/12:30am W 16 25 - - - - 10 Partly cloudy - 12.4 1024.7 0.0
19/12:00am WSW 18 23 - - - - 10 Cloudy - 12.2 1025.4 0.0
 
Date/Time
EST
Wind Sea
Height
m
Swell Vis
km
Cloud Weather Temp
°C
Press
MSL
hPa
Rain since
9am
mm
Dir  Spd
kts
Gust
kts
Height
m
Period
s
Dir
18/11:43pm W 15 25 - - - - 10 Partly cloudy - 12.1 1025.7 0.0
18/11:30pm WSW 15 21 - - - - 10 Partly cloudy - 11.9 1026.1 0.0
18/11:00pm WSW 16 24 - - - - 10 Cloudy - 12.1 1026.5 0.0
18/10:30pm W 16 23 - - - - 10 Cloudy - 12.0 1027.1 0.0
18/10:00pm W 14 22 - - - - 10 Partly cloudy - 12.0 1027.6 0.0
18/09:30pm W 15 21 - - - - 10 Partly cloudy - 12.0 1027.8 0.0
18/09:00pm W 15 22 - - - - 10 Cloudy Rain 11.8 1028.2 0.0
18/08:30pm W 14 20 - - - - 10 Partly cloudy - 12.0 1028.2 0.0
18/08:00pm W 15 21 - - - - 10 Partly cloudy - 11.8 1028.8 0.0
18/07:30pm W 15 22 - - - - 10 Cloudy - 11.8 1028.9 0.0
18/07:00pm W 13 20 - - - - 10 Cloudy - 11.5 1029.3 0.0
18/06:30pm W 15 21 - - - - 10 Cloudy - 11.2 1029.6 0.0
18/06:00pm W 13 18 - - - - 10 Mostly cloudy - 11.2 1029.8 0.0
18/05:30pm WNW 13 17 - - - - 10 Cloudy - 10.9 1029.8 0.0
18/05:00pm W 11 16 - - - - 10 Partly cloudy - 11.2 1030.3 0.0
18/04:30pm WNW 13 17 - - - - 10 Partly cloudy - 11.4 1030.4 0.0
18/04:00pm W 11 15 - - - - 10 Partly cloudy - 11.5 1030.5 0.0
18/03:30pm WNW 11 15 - - - - 10 Partly cloudy - 12.1 1031.1 0.0
18/03:00pm W 10 15 - - - - 10 Cloudy - 12.4 1031.4 0.0
18/02:30pm WNW 10 15 - - - - 10 Partly cloudy - 12.0 1031.6 0.0
18/02:00pm WNW 9 11 - - - - 10 Partly cloudy - 12.2 1031.9 0.0
18/01:30pm NW 8 13 - - - - 10 - - 12.8 1032.4 0.0
18/01:00pm WNW 7 10 - - - - 10 - - 13.0 1032.7 0.0
18/12:30pm WNW 7 11 - - - - 10 Partly cloudy - 12.9 1033.2 0.0
18/12:00pm NW 6 8 - - - - 10 Partly cloudy - 13.1 1033.8 0.0
18/11:30am W 3 7 - - - - 10 - - 12.9 1034.2 0.0
18/11:00am ENE 4 8 - - - - 10 - - 12.3 1034.4 0.0
18/10:30am E 6 7 - - - - 10 - - 11.5 1034.5 0.0
18/10:00am ENE 3 5 - - - - 10 - - 10.7 1034.7 0.0
18/09:30am ESE 2 5 - - - - 10 - - 9.8 1034.5 0.0
18/09:00am NE 3 4 - - - - 10 - - 5.8 1034.7 2.2
18/08:30am ESE 4 5 - - - - 10 - - 3.4 1034.3 2.2
18/08:00am SSE 4 6 - - - - 10 - - 1.9 1034.2 2.2
18/07:30am ESE 3 5 - - - - 10 - - 2.7 1034.0 2.2
18/07:00am ENE 4 4 - - - - 10 - - 2.6 1034.0 2.2
18/06:30am E 4 4 - - - - 10 - - 2.0 1033.9 2.2
18/06:00am ESE 4 6 - - - - 10 - - 3.2 1033.9 2.2
18/05:30am SE 6 8 - - - - 10 - - 5.1 1033.7 2.2
18/05:00am SE 6 8 - - - - 10 - - 6.2 1033.5 2.2
18/04:30am SE 6 7 - - - - 10 - - 6.1 1033.2 2.2
18/04:00am SE 6 8 - - - - 10 - - 5.4 1032.8 2.2
18/03:30am SE 7 8 - - - - 10 Partly cloudy - 6.6 1033.0 2.2
18/03:00am SSE 6 8 - - - - 10 Mostly clear - 7.5 1033.4 2.2
18/02:30am SE 7 10 - - - - 10 Partly cloudy - 7.7 1033.2 2.2
18/02:00am SSE 7 8 - - - - 10 Partly cloudy - 8.1 1032.8 2.2
18/01:30am S 7 9 - - - - 10 Partly cloudy - 8.0 1032.8 2.2
18/01:00am S 7 9 - - - - 10 Partly cloudy - 8.3 1032.5 2.2
18/12:30am SSE 7 9 - - - - 10 Partly cloudy - 8.5 1032.6 2.2
18/12:00am S 10 15 - - - - 10 Mostly cloudy - 9.1 1032.6 2.2
 
Date/Time
EST
Wind Sea
Height
m
Swell Vis
km
Cloud Weather Temp
°C
Press
MSL
hPa
Rain since
9am
mm
Dir  Spd
kts
Gust
kts
Height
m
Period
s
Dir
17/11:30pm S 9 13 - - - - 10 Partly cloudy - 8.6 1032.5 2.2
17/11:00pm S 9 17 - - - - 10 Partly cloudy - 9.3 1032.3 2.2
17/10:30pm S 9 13 - - - - 10 Partly cloudy - 8.4 1032.2 2.2
17/10:00pm S 13 21 - - - - 10 Partly cloudy - 9.3 1032.1 2.2
17/09:30pm S 12 17 - - - - 10 Partly cloudy - 8.8 1031.8 2.2
17/09:12pm S 15 29 - - - - 10 Partly cloudy - 9.2 1031.7 2.2
17/09:00pm S 12 18 - - - - 10 Cloudy Showers 9.5 1031.5 2.0
17/08:30pm S 13 21 - - - - 10 Partly cloudy - 9.9 1031.1 2.0
17/08:00pm S 13 21 - - - - 10 Partly cloudy - 9.1 1030.8 2.0
17/07:52pm SSW 15 25 - - - - 10 Partly cloudy - 8.8 1030.8 2.0
17/07:30pm SSW 17 24 - - - - 10 Partly cloudy - 9.4 1030.4 1.6
17/07:00pm S 16 26 - - - - 10 Partly cloudy - 9.0 1030.0 1.6
17/06:49pm SSW 19 29 - - - - 10 Partly cloudy - 10.5 1029.9 1.6
17/06:30pm SSW 19 27 - - - - 10 Partly cloudy - 10.5 1029.5 1.6
17/06:00pm SSW 18 24 - - - - 10 Cloudy Recent precip. 10.3 1029.1 1.6
17/05:47pm SSW 17 28 - - - - 10 Partly cloudy - 10.7 1028.9 1.6
17/05:30pm SSW 19 28 - - - - 10 Partly cloudy - 10.1 1028.8 1.6
17/05:01pm SSW 18 29 - - - - 10 Partly cloudy - 10.9 1028.4 1.6
17/05:00pm SSW 18 24 - - - - 10 Partly cloudy - 10.9 1028.4 1.6
17/04:30pm SSW 21 27 - - - - 10 Partly cloudy - 10.7 1028.0 1.6

Other formats

Comma delimited format used in spreadsheet applications
http://www.bom.gov.au/fwo/IDV60701/IDV60701.94850.axf

JavaScript Object Notation format (JSON) in row-major order
http://www.bom.gov.au/fwo/IDV60701/IDV60701.94850.json

Data quality

Most of these data are generated automatically and are frequently updated. Quality checks on data are not normally performed. It is possible for incorrect values to appear. Refer to information at About Latest Weather Observations and please check the disclaimer before using these data.